createdAt,value
2019-01-21T04:00:58.863Z,95.07
2019-01-21T04:02:59.069Z,95.26
2019-01-21T04:03:59.234Z,95.35
2019-01-21T04:04:59.334Z,95.54
2019-01-21T04:05:59.479Z,96.11
2019-01-21T04:06:59.671Z,95.82
2019-01-21T04:07:59.829Z,96.11
2019-01-21T04:09:00.008Z,95.92
2019-01-21T04:10:00.502Z,95.73
2019-01-21T04:11:00.289Z,95.73
2019-01-21T04:12:00.460Z,96.11
2019-01-21T04:13:00.564Z,96.01
2019-01-21T04:14:00.739Z,95.73
2019-01-21T04:15:00.854Z,95.54
2019-01-21T04:16:01.070Z,95.64
2019-01-21T04:17:01.200Z,94.88
2019-01-21T04:18:01.291Z,94.50
2019-01-21T04:19:01.514Z,94.13
2019-01-21T04:20:01.653Z,93.56
2019-01-21T04:21:01.815Z,93.65
2019-01-21T04:22:01.953Z,93.75
2019-01-21T04:23:02.084Z,94.13
2019-01-21T04:24:02.213Z,94.31
2019-01-21T04:25:02.355Z,95.54
2019-01-21T04:26:02.516Z,95.35
2019-01-21T04:27:02.701Z,95.64
2019-01-21T04:28:02.878Z,95.73
2019-01-21T04:29:03.035Z,95.92
2019-01-21T04:30:03.122Z,95.82
2019-01-21T04:31:03.305Z,95.54
2019-01-21T04:32:03.475Z,95.26
2019-01-21T04:33:03.624Z,95.35
2019-01-21T04:34:03.747Z,96.01
2019-01-21T04:35:03.897Z,95.92
2019-01-21T04:36:04.099Z,96.11
2019-01-21T04:37:04.328Z,95.40
2019-01-21T04:38:04.411Z,95.35
2019-01-21T04:39:04.567Z,95.40
2019-01-21T04:40:04.711Z,95.31
2019-01-21T04:41:04.866Z,95.59
2019-01-21T04:42:05.003Z,95.50
2019-01-21T04:43:05.097Z,94.93
2019-01-21T04:44:05.283Z,95.12
2019-01-21T04:45:05.407Z,94.93
2019-01-21T04:46:05.607Z,95.78
2019-01-21T04:47:05.707Z,95.68
2019-01-21T04:48:05.899Z,96.06
2019-01-21T04:49:06.101Z,95.78
2019-01-21T04:50:06.199Z,95.31
2019-01-21T04:51:06.333Z,95.78
2019-01-21T04:52:06.534Z,95.31
2019-01-21T04:53:06.668Z,95.59
2019-01-21T04:54:06.882Z,95.97
2019-01-21T04:55:06.976Z,96.15
2019-01-21T04:56:07.116Z,96.15
2019-01-21T04:57:07.264Z,95.68
2019-01-21T04:58:07.402Z,96.15
2019-01-21T04:59:07.632Z,95.97
2019-01-21T05:00:08.782Z,95.97
2019-01-21T05:01:08.003Z,95.97
2019-01-21T05:02:08.147Z,95.21
2019-01-21T05:03:08.334Z,95.78
2019-01-21T05:04:08.449Z,95.40
2019-01-21T05:05:08.615Z,95.78
2019-01-21T05:06:08.767Z,96.25
2019-01-21T05:07:08.877Z,95.97
2019-01-21T05:08:09.112Z,95.59
2019-01-21T05:09:09.253Z,95.59
2019-01-21T05:10:09.417Z,96.06
2019-01-21T05:11:09.550Z,95.78
2019-01-21T05:12:09.680Z,96.06
2019-01-21T05:13:09.918Z,95.50
2019-01-21T05:14:10.008Z,95.40
2019-01-21T05:15:10.152Z,95.31
2019-01-21T05:16:10.296Z,95.59
2019-01-21T05:17:10.510Z,95.12
2019-01-21T05:18:10.659Z,94.93
2019-01-21T05:19:10.801Z,95.50
2019-01-21T05:20:10.949Z,95.50
2019-01-21T05:21:11.053Z,94.74
2019-01-21T05:22:11.233Z,95.12
2019-01-21T05:23:11.384Z,95.50
2019-01-21T05:24:11.499Z,95.78
2019-01-21T05:25:11.659Z,95.40
2019-01-21T05:26:11.904Z,95.50
2019-01-21T05:27:12.061Z,95.50
2019-01-21T05:28:12.232Z,95.12
2019-01-21T05:29:12.347Z,95.50
2019-01-21T05:30:12.539Z,95.40
2019-01-21T05:31:12.713Z,95.40
2019-01-21T05:32:12.840Z,95.40
2019-01-21T05:33:12.991Z,94.93
2019-01-21T05:34:13.169Z,94.36
2019-01-21T05:35:13.319Z,95.40
2019-01-21T05:36:13.439Z,95.40
2019-01-21T05:37:13.616Z,95.97
2019-01-21T05:38:13.802Z,95.68
2019-01-21T05:39:13.993Z,95.40
2019-01-21T05:40:14.046Z,95.12
2019-01-21T05:41:14.217Z,94.93
2019-01-21T05:42:14.350Z,95.02
2019-01-21T05:43:14.538Z,95.12
2019-01-21T05:44:14.747Z,95.31
2019-01-21T05:45:14.825Z,95.02
2019-01-21T05:46:15.070Z,94.55
2019-01-21T05:47:15.226Z,94.93
2019-01-21T05:48:15.247Z,94.46
2019-01-21T05:49:15.467Z,95.12
2019-01-21T05:50:15.555Z,95.59
2019-01-21T05:51:15.858Z,94.83
2019-01-21T05:52:16.001Z,94.65
2019-01-21T05:53:16.080Z,94.93
2019-01-21T05:54:16.325Z,95.02
2019-01-21T05:55:19.165Z,95.50
2019-01-21T05:56:16.551Z,95.40
2019-01-21T05:57:16.894Z,94.79
2019-01-21T05:58:16.847Z,95.07
2019-01-21T05:59:16.991Z,95.07
2019-01-21T06:00:17.396Z,94.69
2019-01-21T06:01:17.347Z,94.55
2019-01-21T06:02:17.488Z,95.17
2019-01-21T06:03:17.718Z,95.17
2019-01-21T06:04:19.191Z,95.17
2019-01-21T06:05:18.069Z,95.17
2019-01-21T06:06:18.312Z,95.64
2019-01-21T06:07:18.359Z,95.26
2019-01-21T06:08:18.438Z,94.98
2019-01-21T06:09:18.652Z,95.54
2019-01-21T06:10:18.864Z,95.45
2019-01-21T06:11:18.929Z,95.45
2019-01-21T06:12:19.186Z,95.45
2019-01-21T06:13:19.287Z,95.45
2019-01-21T06:14:19.401Z,94.79
2019-01-21T06:15:19.627Z,94.79
2019-01-21T06:16:19.708Z,94.32
2019-01-21T06:17:19.851Z,95.26
2019-01-21T06:18:20.030Z,94.98
2019-01-21T06:19:20.288Z,95.45
2019-01-21T06:20:20.425Z,95.64
2019-01-21T06:21:20.535Z,95.54
2019-01-21T06:22:20.647Z,96.11
2019-01-21T06:23:20.789Z,96.20
2019-01-21T06:24:21.008Z,95.64
2019-01-21T06:25:21.085Z,95.64
2019-01-21T06:26:21.232Z,95.45
2019-01-21T06:27:21.455Z,96.11
2019-01-21T06:28:21.565Z,95.45
2019-01-21T06:29:21.752Z,96.20
2019-01-21T06:30:21.898Z,96.01
2019-01-21T06:31:22.144Z,96.01
2019-01-21T06:32:22.189Z,95.92
2019-01-21T06:33:22.394Z,96.20
2019-01-21T06:34:22.567Z,96.11
2019-01-21T06:35:22.670Z,95.45
2019-01-21T06:36:22.797Z,95.73
2019-01-21T06:37:23.030Z,94.98
2019-01-21T06:38:23.211Z,95.07
2019-01-21T06:39:23.338Z,95.36
2019-01-21T06:40:23.487Z,95.54
2019-01-21T06:41:23.684Z,95.73
2019-01-21T06:42:23.742Z,95.64
2019-01-21T06:43:23.888Z,96.01
2019-01-21T06:44:24.020Z,96.01
2019-01-21T06:45:24.181Z,96.01
2019-01-21T06:46:24.377Z,96.30
2019-01-21T06:47:24.569Z,96.01
2019-01-21T06:48:24.775Z,96.11
2019-01-21T06:49:24.888Z,96.01
2019-01-21T06:50:25.646Z,96.77
2019-01-21T06:51:25.298Z,96.48
2019-01-21T06:52:25.447Z,96.67
2019-01-21T06:53:25.692Z,96.77
2019-01-21T06:54:25.807Z,96.67
2019-01-21T06:55:25.933Z,96.20
2019-01-21T06:56:26.133Z,96.39
2019-01-21T06:57:26.223Z,96.67
2019-01-21T06:58:26.453Z,96.39
2019-01-21T06:59:26.557Z,96.01
2019-01-21T07:00:26.747Z,96.01
2019-01-21T07:01:26.848Z,96.67
2019-01-21T07:03:27.355Z,96.20
2019-01-21T07:04:27.353Z,96.20
2019-01-21T07:05:27.491Z,96.01
2019-01-21T07:06:27.717Z,96.11
2019-01-21T07:07:27.996Z,96.58
2019-01-21T07:08:28.107Z,96.01
2019-01-21T07:09:28.218Z,96.01
2019-01-21T07:10:28.355Z,96.30
2019-01-21T07:11:28.558Z,96.39
2019-01-21T07:12:28.661Z,96.30
2019-01-21T07:13:28.888Z,96.39
2019-01-21T07:14:28.991Z,96.39
2019-01-21T07:15:29.137Z,96.67
2019-01-21T07:16:29.230Z,96.67
2019-01-21T07:17:29.460Z,96.67
2019-01-21T07:18:29.611Z,96.67
2019-01-21T07:19:29.726Z,96.58
2019-01-21T07:20:30.011Z,96.58
2019-01-21T07:21:30.107Z,96.86
2019-01-21T07:22:30.202Z,96.48
2019-01-21T07:23:30.347Z,96.67
2019-01-21T07:24:30.548Z,96.58
2019-01-21T07:25:30.741Z,96.48
2019-01-21T07:26:31.734Z,96.20
2019-01-21T07:27:30.937Z,96.48
2019-01-21T07:28:31.121Z,96.30
2019-01-21T07:29:31.322Z,96.39
2019-01-21T07:30:31.451Z,96.48
2019-01-21T07:31:31.627Z,96.67
2019-01-21T07:32:31.764Z,97.14
2019-01-21T07:33:31.922Z,96.77
2019-01-21T07:34:33.142Z,96.77
2019-01-21T07:35:32.327Z,96.77
2019-01-21T07:36:32.417Z,96.67
2019-01-21T07:37:32.770Z,96.01
2019-01-21T07:38:32.767Z,96.11
2019-01-21T07:39:33.905Z,96.30
2019-01-21T07:40:42.066Z,96.67
2019-01-21T07:41:35.345Z,96.58
2019-01-21T07:42:33.365Z,96.01
2019-01-21T07:43:33.588Z,96.01
2019-01-21T07:44:33.640Z,95.64
2019-01-21T07:45:33.831Z,95.36
2019-01-21T07:46:33.956Z,95.54
2019-01-21T07:47:34.118Z,95.54
2019-01-21T07:48:34.326Z,95.92
2019-01-21T07:49:34.464Z,96.01
2019-01-21T07:50:34.628Z,96.25
2019-01-21T07:51:34.714Z,95.97
2019-01-21T07:52:35.009Z,96.15
2019-01-21T07:53:35.121Z,96.01
2019-01-21T07:54:35.257Z,95.83
2019-01-21T07:55:35.364Z,96.06
2019-01-21T07:56:35.627Z,95.97
2019-01-21T07:57:36.119Z,96.15
2019-01-21T07:58:35.928Z,96.25
2019-01-21T07:59:36.144Z,95.59
2019-01-21T08:00:36.381Z,95.59
2019-01-21T08:01:36.992Z,94.84
2019-01-21T08:02:37.086Z,95.40
2019-01-21T08:03:36.825Z,95.21
2019-01-21T08:04:36.991Z,95.40
2019-01-21T08:05:37.129Z,95.50
2019-01-21T08:06:37.294Z,95.50
2019-01-21T08:07:37.464Z,95.50
2019-01-21T08:08:37.603Z,95.87
2019-01-21T08:09:37.813Z,96.15
2019-01-21T08:10:37.906Z,96.06
2019-01-21T08:11:38.058Z,95.87
2019-01-21T08:12:38.210Z,95.50
2019-01-21T08:13:38.300Z,95.50
2019-01-21T08:14:38.508Z,95.50
2019-01-21T08:15:38.717Z,95.59
2019-01-21T08:16:38.873Z,95.59
2019-01-21T08:17:39.072Z,95.12
2019-01-21T08:18:39.263Z,94.93
2019-01-21T08:19:39.498Z,95.40
2019-01-21T08:20:40.080Z,95.03
2019-01-21T08:21:39.735Z,94.84
2019-01-21T08:22:39.842Z,95.03
2019-01-21T08:23:40.089Z,95.59
2019-01-21T08:24:40.217Z,95.59
2019-01-21T08:25:40.391Z,95.50
2019-01-21T08:26:40.477Z,95.68
2019-01-21T08:27:40.601Z,95.12
2019-01-21T08:28:40.821Z,95.03
2019-01-21T08:29:41.005Z,94.74
2019-01-21T08:30:41.184Z,94.65
2019-01-21T08:31:41.273Z,94.27
2019-01-21T08:32:41.449Z,93.99
2019-01-21T08:33:41.662Z,94.08
2019-01-21T08:34:41.929Z,94.55
2019-01-21T08:35:42.968Z,94.84
2019-01-21T08:36:42.550Z,95.12
2019-01-21T08:37:42.309Z,95.31
2019-01-21T08:38:42.468Z,95.59
2019-01-21T08:39:42.677Z,95.40
2019-01-21T08:40:42.795Z,95.97
2019-01-21T08:41:43.000Z,95.59
2019-01-21T08:42:43.212Z,95.50
2019-01-21T08:43:43.293Z,95.59
2019-01-21T08:44:43.579Z,95.03
2019-01-21T08:45:43.799Z,94.74
2019-01-21T08:46:44.178Z,94.65
2019-01-21T08:47:44.060Z,94.46
2019-01-21T08:48:44.058Z,93.99
2019-01-21T08:49:44.175Z,94.08
2019-01-21T08:50:44.426Z,94.18
2019-01-21T08:51:44.497Z,94.36
2019-01-21T08:52:44.645Z,94.74
2019-01-21T08:53:44.855Z,94.55
2019-01-21T08:54:45.058Z,94.65
2019-01-21T08:55:45.170Z,95.17
2019-01-21T08:56:45.261Z,94.60
2019-01-21T08:57:45.544Z,94.18
2019-01-21T08:58:45.725Z,93.75
2019-01-21T08:59:45.857Z,93.94
2019-01-21T09:00:46.051Z,94.32
2019-01-21T09:01:46.232Z,94.32
2019-01-21T09:02:46.297Z,94.32
2019-01-21T09:03:46.576Z,94.13
2019-01-21T09:04:46.596Z,94.22
2019-01-21T09:05:46.843Z,94.70
2019-01-21T09:06:46.936Z,94.60
2019-01-21T09:07:47.106Z,94.41
2019-01-21T09:08:47.321Z,93.18
2019-01-21T09:09:47.474Z,93.18
2019-01-21T09:10:47.593Z,93.37
2019-01-21T09:11:47.817Z,92.80
2019-01-21T09:12:47.874Z,92.61
2019-01-21T09:13:48.066Z,91.77
2019-01-21T09:14:48.222Z,92.05
2019-01-21T09:15:48.423Z,92.43
2019-01-21T09:16:48.509Z,93.28
2019-01-21T09:17:48.668Z,93.47
2019-01-21T09:18:48.864Z,92.52
2019-01-21T09:19:49.006Z,92.99
2019-01-21T09:20:49.130Z,92.24
2019-01-21T09:21:49.303Z,92.99
2019-01-21T09:22:49.431Z,92.52
2019-01-21T09:23:49.568Z,92.61
2019-01-21T09:24:49.764Z,92.33
2019-01-21T09:25:49.926Z,91.67
2019-01-21T09:26:50.017Z,91.49
2019-01-21T09:27:50.313Z,91.67
2019-01-21T09:28:50.381Z,91.30
2019-01-21T09:29:50.590Z,91.25
2019-01-21T09:30:50.782Z,91.53
2019-01-21T09:31:50.916Z,91.15
2019-01-21T09:32:51.074Z,90.77
2019-01-21T09:33:51.184Z,90.21
2019-01-21T09:34:51.337Z,89.26
2019-01-21T09:35:51.554Z,89.07
2019-01-21T09:36:51.690Z,88.60
2019-01-21T09:37:51.841Z,89.36
2019-01-21T09:38:52.000Z,89.54
2019-01-21T09:39:52.154Z,88.79
2019-01-21T09:40:52.248Z,89.22
2019-01-21T09:41:52.496Z,88.22
2019-01-21T09:42:52.593Z,84.95
2019-01-21T09:43:53.910Z,81.55
2019-01-21T09:44:52.957Z,79.03
2019-01-21T09:45:53.164Z,77.04
2019-01-21T09:46:53.230Z,76.19
2019-01-21T09:47:53.351Z,74.68
2019-01-21T09:48:53.590Z,73.77
2019-01-21T09:49:53.755Z,73.01
2019-01-21T09:50:53.912Z,72.34
2019-01-21T09:51:54.104Z,71.31
2019-01-21T09:52:54.170Z,71.06
2019-01-21T09:53:54.343Z,71.15
2019-01-21T09:54:54.550Z,70.49
2019-01-21T09:55:54.698Z,68.69
2019-01-21T09:56:54.810Z,68.98
2019-01-21T09:57:54.995Z,67.93
2019-01-21T09:58:55.175Z,68.50
2019-01-21T09:59:55.366Z,68.63
2019-01-21T10:00:55.528Z,68.15
2019-01-21T10:01:55.655Z,68.02
2019-01-21T10:02:55.923Z,67.96
2019-01-21T10:03:55.968Z,67.21
2019-01-21T10:04:56.160Z,66.35
2019-01-21T10:05:56.305Z,65.97
2019-01-21T10:06:56.524Z,66.01
2019-01-21T10:07:56.670Z,64.78
2019-01-21T10:08:56.802Z,64.20
2019-01-21T10:09:57.000Z,63.35
2019-01-21T10:11:03.156Z,62.91
2019-01-21T10:11:57.289Z,62.62
2019-01-21T10:12:57.467Z,62.08
2019-01-21T10:13:57.628Z,60.85
2019-01-21T10:14:57.794Z,60.50
2019-01-21T10:15:57.932Z,59.84
2019-01-21T10:16:58.208Z,59.46
2019-01-21T10:17:59.721Z,58.80
2019-01-21T10:18:58.496Z,58.51
2019-01-21T10:19:58.621Z,59.27
2019-01-21T10:20:58.846Z,58.89
2019-01-21T10:21:58.995Z,58.54
2019-01-21T10:22:59.654Z,57.21
2019-01-21T10:23:59.354Z,57.02
2019-01-21T10:24:59.492Z,55.78
2019-01-21T10:25:59.699Z,55.15
2019-01-21T10:26:59.846Z,55.43
2019-01-21T10:28:00.036Z,55.33
2019-01-21T10:29:00.165Z,54.86
2019-01-21T10:30:00.340Z,55.33
2019-01-21T10:31:00.506Z,54.41
2019-01-21T10:32:00.655Z,53.27
2019-01-21T10:33:00.884Z,52.96
2019-01-21T10:34:00.994Z,54.36
2019-01-21T10:35:01.210Z,53.72
2019-01-21T10:36:01.334Z,53.72
2019-01-21T10:37:01.478Z,53.55
2019-01-21T10:38:01.638Z,51.84
2019-01-21T10:39:01.846Z,52.51
2019-01-21T10:40:01.989Z,52.61
2019-01-21T10:41:02.161Z,53.08
2019-01-21T10:42:02.334Z,52.70
2019-01-21T10:43:02.499Z,51.39
2019-01-21T10:44:02.576Z,50.73
2019-01-21T10:45:02.879Z,49.30
2019-01-21T10:46:03.003Z,49.49
2019-01-21T10:47:03.129Z,49.68
2019-01-21T10:48:03.360Z,50.15
2019-01-21T10:51:25.787Z,49.65
2019-01-21T10:52:26.291Z,50.32
2019-01-21T10:53:26.642Z,51.65
2019-01-21T10:54:26.345Z,50.20
2019-01-21T10:55:27.235Z,49.54
2019-01-21T10:56:27.010Z,49.85
2019-01-21T10:57:26.779Z,50.60
2019-01-21T10:58:27.133Z,50.58
2019-01-21T10:59:27.611Z,50.13
2019-01-21T11:00:25.157Z,50.70
2019-01-21T11:01:25.204Z,51.65
2019-01-21T11:02:25.359Z,50.42
2019-01-21T11:03:25.534Z,50.15
2019-01-21T11:04:26.590Z,50.82
2019-01-21T11:05:25.960Z,49.68
2019-01-21T11:06:26.111Z,49.87
2019-01-21T11:07:26.289Z,48.54
2019-01-21T11:08:26.404Z,48.92
2019-01-21T11:09:26.929Z,48.25
2019-01-21T11:10:26.756Z,47.99
2019-01-21T11:11:26.964Z,46.94
2019-01-21T11:12:27.135Z,47.02
2019-01-21T11:13:27.230Z,46.63
2019-01-21T11:14:27.367Z,45.61
2019-01-21T11:15:27.655Z,44.96
2019-01-21T11:16:27.667Z,44.68
2019-01-21T11:17:27.915Z,44.39
2019-01-21T11:18:28.064Z,44.13
2019-01-21T11:19:28.252Z,43.37
2019-01-21T11:20:28.394Z,43.08
2019-01-21T11:21:28.662Z,43.82
2019-01-21T11:22:28.818Z,44.78
2019-01-21T11:23:28.963Z,44.59
2019-01-21T11:24:29.133Z,43.73
2019-01-21T11:25:29.311Z,43.54
2019-01-21T11:26:29.497Z,44.49
2019-01-21T11:27:29.647Z,44.01
2019-01-21T11:28:29.847Z,44.20
2019-01-21T11:29:29.942Z,44.30
2019-01-21T11:30:30.163Z,44.30
2019-01-21T11:31:30.245Z,44.27
2019-01-21T11:32:30.492Z,45.23
2019-01-21T11:33:30.681Z,44.39
2019-01-21T11:34:30.831Z,44.96
2019-01-21T11:35:30.929Z,43.46
2019-01-21T11:36:31.195Z,43.27
2019-01-21T11:37:31.396Z,43.46
2019-01-21T11:38:31.490Z,42.87
2019-01-21T11:39:31.727Z,42.40
2019-01-21T11:40:31.871Z,42.68
2019-01-21T11:41:32.056Z,42.22
2019-01-21T11:42:32.205Z,41.84
2019-01-21T11:43:32.383Z,42.11
2019-01-21T11:44:32.529Z,42.94
2019-01-21T11:45:32.668Z,43.40
2019-01-21T11:46:32.869Z,44.66
2019-01-21T11:47:33.010Z,44.85
2019-01-21T11:48:33.209Z,44.87
2019-01-21T11:49:33.362Z,45.83
2019-01-21T11:50:33.582Z,44.89
2019-01-21T11:51:33.651Z,43.27
2019-01-21T11:52:33.946Z,42.60
2019-01-21T11:53:34.094Z,42.32
2019-01-21T11:54:34.254Z,43.37
2019-01-21T11:55:34.369Z,43.82
2019-01-21T11:56:34.535Z,44.59
2019-01-21T11:57:34.720Z,44.30
2019-01-21T11:58:34.835Z,44.04
2019-01-21T11:59:35.024Z,44.13
2019-01-21T12:00:35.214Z,44.59
2019-01-21T12:01:35.363Z,44.49
2019-01-21T12:02:35.555Z,44.85
2019-01-21T12:03:35.823Z,44.68
2019-01-21T12:04:35.913Z,43.65
2019-01-21T12:05:36.082Z,42.44
2019-01-21T12:06:36.629Z,41.58
2019-01-21T12:07:36.387Z,42.63
2019-01-21T12:08:36.536Z,42.89
2019-01-21T12:09:36.725Z,42.40
2019-01-21T12:10:36.867Z,42.68
2019-01-21T12:11:37.037Z,43.13
2019-01-21T12:12:37.205Z,44.18
2019-01-21T12:13:37.399Z,44.11
2019-01-21T12:14:37.688Z,43.06
2019-01-21T12:15:37.680Z,42.99
2019-01-21T12:16:37.909Z,43.37
2019-01-21T12:17:39.301Z,42.68
2019-01-21T12:18:38.138Z,41.84
2019-01-21T12:19:38.839Z,41.77
2019-01-21T12:20:38.684Z,40.81
2019-01-21T12:21:38.658Z,40.15
2019-01-21T12:22:40.536Z,40.53
2019-01-21T12:23:39.129Z,40.55
2019-01-21T12:24:40.039Z,40.81
2019-01-21T12:25:39.393Z,41.86
2019-01-21T12:26:39.611Z,40.55
2019-01-21T12:27:39.738Z,40.17
2019-01-21T12:28:40.231Z,39.59
2019-01-21T12:29:40.580Z,39.12
2019-01-21T12:30:40.344Z,39.69
2019-01-21T12:31:40.709Z,39.59
2019-01-21T12:32:40.683Z,39.78
2019-01-21T12:33:42.029Z,39.22
2019-01-21T12:34:41.048Z,38.95
2019-01-21T12:35:41.263Z,38.93
2019-01-21T12:36:41.474Z,39.78
2019-01-21T12:37:41.618Z,40.07
2019-01-21T12:38:41.753Z,38.76
2019-01-21T12:39:41.907Z,38.37
2019-01-21T12:40:42.092Z,37.59
2019-01-21T12:41:42.242Z,37.71
2019-01-21T12:42:42.421Z,38.07
2019-01-21T12:43:42.592Z,38.28
2019-01-21T12:44:42.791Z,39.12
2019-01-21T12:45:42.938Z,39.40
2019-01-21T12:46:43.160Z,39.00
2019-01-21T12:47:43.317Z,39.48
2019-01-21T12:48:43.483Z,39.48
2019-01-21T12:49:43.661Z,40.34
2019-01-21T12:50:43.875Z,40.91
2019-01-21T12:51:43.977Z,40.81
2019-01-21T12:52:44.126Z,40.63
2019-01-21T12:53:44.325Z,41.08
2019-01-21T12:54:44.519Z,41.67
2019-01-21T12:55:44.714Z,42.60
2019-01-21T12:56:44.857Z,41.94
2019-01-21T12:57:44.942Z,41.94
2019-01-21T12:58:45.909Z,41.84
2019-01-21T12:59:45.401Z,41.58
2019-01-21T13:00:46.241Z,41.00
2019-01-21T13:01:45.790Z,40.34
2019-01-21T13:02:46.009Z,41.56
2019-01-21T13:03:46.546Z,42.15
2019-01-21T13:04:46.805Z,40.53
2019-01-21T13:05:46.681Z,40.72
2019-01-21T13:06:46.821Z,40.72
2019-01-21T13:07:46.990Z,40.34
2019-01-21T13:08:47.256Z,40.15
2019-01-21T13:09:47.366Z,40.44
2019-01-21T13:10:47.722Z,41.10
2019-01-21T13:11:47.937Z,41.48
2019-01-21T13:12:48.190Z,41.17
2019-01-21T13:13:48.184Z,41.53
2019-01-21T13:14:48.579Z,42.77
2019-01-21T13:15:48.549Z,43.35
2019-01-21T13:16:48.573Z,43.25
2019-01-21T13:17:48.985Z,43.25
2019-01-21T13:18:48.929Z,43.35
2019-01-21T13:19:49.343Z,43.35
2019-01-21T13:20:49.481Z,43.44
2019-01-21T13:21:49.455Z,44.11
2019-01-21T13:22:51.625Z,43.54
2019-01-21T13:23:49.781Z,42.96
2019-01-21T13:24:51.017Z,44.09
2019-01-21T13:25:50.124Z,44.46
2019-01-21T13:26:50.260Z,44.27
2019-01-21T13:27:50.531Z,44.39
2019-01-21T13:28:50.763Z,44.78
2019-01-21T13:29:50.772Z,44.11
2019-01-21T13:31:51.282Z,44.54
2019-01-21T13:32:51.464Z,45.78
2019-01-21T13:33:51.555Z,46.42
2019-01-21T13:34:52.058Z,46.59
2019-01-21T13:35:51.795Z,48.18
2019-01-21T13:36:52.343Z,49.41
2019-01-21T13:39:37.371Z,51.03
2019-01-21T13:40:41.341Z,50.93
2019-01-21T13:41:40.106Z,50.39
2019-01-21T13:42:39.840Z,48.61
2019-01-21T13:43:37.827Z,48.51
2019-01-21T13:44:37.882Z,48.16
2019-01-21T13:45:38.303Z,47.49
2019-01-21T13:46:38.696Z,47.49
2019-01-21T13:47:38.753Z,47.49
2019-01-21T13:48:41.326Z,46.73
2019-01-21T13:49:41.646Z,46.73
2019-01-21T13:50:41.304Z,45.80
2019-01-21T13:51:39.689Z,45.04
2019-01-21T13:52:45.300Z,44.87
2019-01-21T13:53:40.557Z,44.68
2019-01-21T13:54:39.857Z,44.09
2019-01-21T13:55:42.320Z,44.75
2019-01-21T13:56:40.755Z,44.85
2019-01-21T13:57:39.381Z,45.14
2019-01-21T13:58:38.371Z,45.61
2019-01-21T13:59:38.663Z,45.14
2019-01-21T14:00:38.731Z,44.85
2019-01-21T14:01:39.140Z,44.75
2019-01-21T14:02:38.974Z,44.85
2019-01-21T14:03:39.535Z,43.99
2019-01-21T14:04:40.507Z,44.09
2019-01-21T14:05:40.339Z,44.27
2019-01-21T14:06:40.271Z,44.37
2019-01-21T14:07:40.680Z,45.11
2019-01-21T14:08:40.282Z,44.82
2019-01-21T14:09:40.439Z,45.87
2019-01-21T14:10:40.913Z,45.30
2019-01-21T14:11:40.916Z,45.68
2019-01-21T14:12:40.958Z,44.85
2019-01-21T14:13:41.122Z,44.30
2019-01-21T14:14:41.034Z,43.51
2019-01-21T14:15:41.371Z,43.61
2019-01-21T14:16:41.395Z,43.51
2019-01-21T14:17:41.897Z,43.80
2019-01-21T14:18:41.908Z,44.06
2019-01-21T14:19:41.934Z,45.21
2019-01-21T14:20:43.692Z,45.87
2019-01-21T14:21:42.654Z,46.99
2019-01-21T14:22:42.506Z,47.63
2019-01-21T14:23:42.703Z,48.21
2019-01-21T14:24:42.929Z,48.68
2019-01-21T14:25:43.358Z,49.63
2019-01-21T14:26:44.290Z,49.44
2019-01-21T14:27:43.460Z,48.49
2019-01-21T14:28:43.842Z,47.37
2019-01-21T14:29:44.508Z,46.63
2019-01-21T14:30:44.155Z,46.35
2019-01-21T14:31:44.327Z,45.78
2019-01-21T14:32:44.292Z,45.78
2019-01-21T14:33:44.527Z,44.66
2019-01-21T14:34:44.689Z,44.92
2019-01-21T14:35:45.478Z,44.73
2019-01-21T14:36:45.034Z,46.63
2019-01-21T14:37:45.562Z,48.13
2019-01-21T14:38:45.768Z,49.08
2019-01-21T14:39:45.807Z,48.96
2019-01-21T14:40:45.948Z,49.51
2019-01-21T14:41:46.367Z,51.31
2019-01-21T14:42:46.308Z,53.09
2019-01-21T14:43:46.548Z,53.57
2019-01-21T14:44:46.615Z,53.47
2019-01-21T14:45:46.781Z,53.09
2019-01-21T14:46:46.963Z,53.00
2019-01-21T14:47:47.465Z,53.76
2019-01-21T14:48:47.670Z,53.95
2019-01-21T14:49:47.617Z,54.52
2019-01-21T14:50:50.567Z,54.33
2019-01-21T14:51:47.904Z,53.47
2019-01-21T14:52:48.297Z,53.76
2019-01-21T14:53:48.185Z,54.78
2019-01-21T14:54:48.474Z,55.44
2019-01-21T14:55:48.565Z,56.46
2019-01-21T14:56:48.740Z,57.31
2019-01-21T14:57:48.956Z,57.21
2019-01-21T14:58:49.188Z,57.59
2019-01-21T14:59:49.471Z,58.45
2019-01-21T15:00:49.626Z,58.26
2019-01-21T15:01:49.764Z,57.59
2019-01-21T15:02:49.942Z,57.15
2019-01-21T15:03:50.094Z,56.29
2019-01-21T15:04:50.357Z,55.06
2019-01-21T15:05:50.437Z,55.47
2019-01-21T15:06:50.744Z,54.33
2019-01-21T15:07:50.737Z,53.57
2019-01-21T15:08:50.997Z,54.49
2019-01-21T15:09:51.126Z,54.49
2019-01-21T15:10:51.775Z,55.70
2019-01-21T15:11:51.571Z,57.38
2019-01-21T15:12:51.710Z,59.37
2019-01-21T15:13:52.053Z,60.67
2019-01-21T15:14:52.415Z,62.15
2019-01-21T15:15:52.514Z,62.82
2019-01-21T15:16:52.462Z,64.23
2019-01-21T15:17:52.673Z,64.68
2019-01-21T15:18:52.817Z,65.63
2019-01-21T15:19:52.987Z,66.16
2019-01-21T15:20:57.645Z,66.73
2019-01-21T15:21:53.400Z,67.39
2019-01-21T15:22:53.356Z,67.49
2019-01-21T15:23:53.618Z,68.62
2019-01-21T15:24:53.934Z,68.33
2019-01-21T15:25:54.615Z,68.52
2019-01-21T15:26:54.393Z,68.71
2019-01-21T15:27:54.619Z,69.66
2019-01-21T15:28:54.692Z,70.14
2019-01-21T15:29:56.066Z,70.39
2019-01-21T15:30:55.230Z,70.39
2019-01-21T15:31:55.241Z,70.76
2019-01-21T15:32:55.399Z,70.76
2019-01-21T15:34:05.953Z,70.86
2019-01-21T15:34:57.950Z,70.57
2019-01-21T15:35:58.847Z,70.86
2019-01-21T15:36:58.350Z,71.04
2019-01-21T15:38:58.551Z,71.14
2019-01-21T15:39:59.435Z,71.71
2019-01-21T15:40:59.193Z,71.33
2019-01-21T15:41:59.196Z,71.42
2019-01-21T15:43:59.455Z,71.71
2019-01-21T15:44:59.808Z,71.80
2019-01-21T15:45:59.810Z,71.80
2019-01-21T15:47:00.293Z,71.61
2019-01-21T15:48:00.099Z,71.42
2019-01-21T15:48:58.436Z,71.33
2019-01-21T15:51:04.871Z,71.71
2019-01-21T15:51:58.699Z,71.80
2019-01-21T15:52:58.854Z,71.90
2019-01-21T15:53:59.010Z,73.03
2019-01-21T15:54:59.177Z,72.85
2019-01-21T15:55:59.255Z,73.22
2019-01-21T15:56:59.486Z,73.79
2019-01-21T15:57:59.613Z,74.17
2019-01-21T15:58:59.840Z,74.64
2019-01-21T15:59:59.928Z,74.93
2019-01-21T16:01:00.136Z,75.78
2019-01-21T16:02:00.278Z,75.59
2019-01-21T16:03:00.500Z,75.87
2019-01-21T16:04:00.654Z,75.68
2019-01-21T16:05:00.851Z,76.34
2019-01-21T16:06:00.968Z,76.06
2019-01-21T16:07:01.125Z,76.34
2019-01-21T16:08:01.287Z,76.68
2019-01-21T16:09:02.284Z,76.59
2019-01-21T16:10:01.598Z,76.87
2019-01-21T16:11:01.807Z,77.63
2019-01-21T16:12:01.973Z,77.63
2019-01-21T16:13:02.068Z,78.67
2019-01-21T16:14:02.323Z,79.24
2019-01-21T16:18:05.425Z,80.37
2019-01-21T16:19:11.165Z,80.80
2019-01-21T16:25:26.103Z,82.50
2019-01-21T16:54:23.886Z,85.34
2019-01-21T16:57:09.522Z,84.77
2019-01-21T16:58:08.718Z,84.16
2019-01-21T16:59:06.500Z,84.30
2019-01-21T17:01:40.921Z,85.20
2019-01-21T17:02:41.248Z,85.49
2019-01-21T17:05:15.478Z,86.33
2019-01-21T17:06:14.306Z,86.24
2019-01-21T17:09:02.727Z,86.15
2019-01-21T17:11:02.424Z,87.09
2019-01-21T17:12:02.067Z,87.37
2019-01-21T17:13:01.237Z,87.28
2019-01-21T17:14:01.501Z,87.37
2019-01-21T17:15:01.446Z,87.28
2019-01-21T17:16:01.590Z,87.47
2019-01-21T17:17:01.639Z,86.90
2019-01-21T17:18:01.855Z,86.90
2019-01-21T17:19:01.991Z,86.71
2019-01-21T17:20:02.180Z,86.99
2019-01-21T17:21:02.307Z,87.47
2019-01-21T17:22:02.500Z,87.37
2019-01-21T17:23:02.552Z,87.18
2019-01-21T17:24:02.970Z,87.28
2019-01-21T17:25:02.847Z,87.47
2019-01-21T17:26:03.040Z,87.43
2019-01-21T17:27:03.117Z,87.37
2019-01-21T17:28:03.374Z,87.24
2019-01-21T17:29:03.482Z,88.13
2019-01-21T17:30:03.711Z,87.66
2019-01-21T17:31:03.801Z,88.37
2019-01-21T17:32:04.050Z,88.46
2019-01-21T17:33:05.803Z,88.79
2019-01-21T17:34:04.361Z,89.07
2019-01-21T17:35:04.793Z,88.79
2019-01-21T17:36:04.879Z,89.26
2019-01-21T17:39:24.921Z,88.75
2019-01-21T17:40:25.855Z,88.93
2019-01-21T17:41:17.389Z,88.65
2019-01-21T17:42:17.452Z,88.65
2019-01-21T17:49:40.641Z,91.01
2019-01-21T17:50:24.107Z,90.82
2019-01-21T17:51:33.792Z,90.73
2019-01-21T17:52:28.657Z,90.92
2019-01-21T17:53:31.842Z,90.07
2019-01-21T17:54:22.336Z,90.35
2019-01-21T17:58:45.420Z,90.16
2019-01-21T18:11:55.643Z,91.39
2019-01-21T18:12:54.859Z,91.11